KSRR

Details ICAO KSRR (SRR)
Name SIERRA BLANCA RGNL
Region United States
Timezone America/Denver (UTC-6.0)
Plans Departing 2
Arriving 14
Stats Elevation 6,814 ft / 2,077 m (AMSL)
Location 33.460560° -105.528642°
Runways 2
Magnetic Variation 7.863° E
Sunrise 2018-05-27 11:56:28 UTC / 2018-05-27 05:56:28 Local
Sunset 2018-05-28 02:05:01 UTC / 2018-05-27 20:05:01 Local
Advertisement - Login to hide

Runways

ID Width Length Bearing (true) Bearing (mag) Surface Threshold Offset Overrun Length
06 100 ft / 30 m 8,086 ft / 2,465 m 71.30° 63.44° Asphalt 0 ft / 0 m 0 ft / 0 m
12 75 ft / 23 m 6,500 ft / 1,981 m 129.94° 122.08° Asphalt 0 ft / 0 m 0 ft / 0 m
24 100 ft / 30 m 8,086 ft / 2,465 m 251.32° 243.46° Asphalt 0 ft / 0 m 0 ft / 0 m
30 75 ft / 23 m 6,500 ft / 1,981 m 309.95° 302.09° Asphalt 0 ft / 0 m 0 ft / 0 m

Map

Weather


0- 5 10 15 20 25 30 35+ Temperature / ° C

Clouds and Precipitation
Forecast for 2018-05-27 12:00 UTC. Updated 3 hours ago

Ground ~20,000 ft ~40,000 ft Winds

METAR

KSRR 271415Z AUTO 21012KT 10SM CLR 22/M10 A3009 RMK AO2

TAF

Not found

Frequencies

Recorded 126.47 MHz AWOS 3
Unicom 122.80 MHz CTAF/UNICOM
Warning: Do not use this data for real-world aviation or navigation. No guarantee of current accuracy is given.